sensor_id;sensor_type;location;lat;lon;timestamp;pressure;altitude;pressure_sealevel;temperature;humidity
12178;BME280;6152;48.728;9.256;2023-12-28T00:00:49;97167.91;;;7.03;62.93
12178;BME280;6152;48.728;9.256;2023-12-28T00:03:18;97163.84;;;6.98;63.13
12178;BME280;6152;48.728;9.256;2023-12-28T00:05:44;97166.31;;;7.01;62.37
12178;BME280;6152;48.728;9.256;2023-12-28T00:08:11;97155.34;;;6.96;62.40
12178;BME280;6152;48.728;9.256;2023-12-28T00:10:37;97142.47;;;6.94;62.37
12178;BME280;6152;48.728;9.256;2023-12-28T00:13:03;97150.56;;;6.87;62.95
12178;BME280;6152;48.728;9.256;2023-12-28T00:15:29;97152.25;;;6.88;61.93
12178;BME280;6152;48.728;9.256;2023-12-28T00:17:55;97146.66;;;6.97;61.24
12178;BME280;6152;48.728;9.256;2023-12-28T00:20:23;97156.16;;;7.15;59.96
12178;BME280;6152;48.728;9.256;2023-12-28T00:22:49;97174.03;;;7.38;59.26
12178;BME280;6152;48.728;9.256;2023-12-28T00:25:15;97181.03;;;7.36;59.90
12178;BME280;6152;48.728;9.256;2023-12-28T00:27:41;97171.13;;;7.27;60.47
12178;BME280;6152;48.728;9.256;2023-12-28T00:30:07;97170.56;;;7.21;60.25
12178;BME280;6152;48.728;9.256;2023-12-28T00:32:33;97183.59;;;7.19;60.66
12178;BME280;6152;48.728;9.256;2023-12-28T00:35:00;97170.84;;;7.15;60.00
12178;BME280;6152;48.728;9.256;2023-12-28T00:37:26;97178.84;;;7.10;60.45
12178;BME280;6152;48.728;9.256;2023-12-28T00:39:52;97179.09;;;7.04;60.28
12178;BME280;6152;48.728;9.256;2023-12-28T00:42:19;97182.94;;;6.95;61.13
12178;BME280;6152;48.728;9.256;2023-12-28T00:44:45;97180.06;;;6.83;61.83
12178;BME280;6152;48.728;9.256;2023-12-28T00:47:11;97191.72;;;6.73;62.10
12178;BME280;6152;48.728;9.256;2023-12-28T00:49:37;97196.53;;;6.62;62.77
12178;BME280;6152;48.728;9.256;2023-12-28T00:52:04;97190.91;;;6.52;62.74
12178;BME280;6152;48.728;9.256;2023-12-28T00:54:30;97187.00;;;6.43;63.33
12178;BME280;6152;48.728;9.256;2023-12-28T00:56:56;97185.56;;;6.36;64.15
12178;BME280;6152;48.728;9.256;2023-12-28T00:59:22;97202.25;;;6.29;64.07
12178;BME280;6152;48.728;9.256;2023-12-28T01:01:48;97186.06;;;6.24;64.34
12178;BME280;6152;48.728;9.256;2023-12-28T01:04:14;97182.72;;;6.22;64.85
12178;BME280;6152;48.728;9.256;2023-12-28T01:06:40;97188.88;;;6.20;65.73
12178;BME280;6152;48.728;9.256;2023-12-28T01:09:07;97183.84;;;6.17;65.15
12178;BME280;6152;48.728;9.256;2023-12-28T01:11:33;97189.06;;;6.15;65.09
12178;BME280;6152;48.728;9.256;2023-12-28T01:13:59;97193.47;;;6.13;64.96
12178;BME280;6152;48.728;9.256;2023-12-28T01:16:25;97175.59;;;6.07;66.07
12178;BME280;6152;48.728;9.256;2023-12-28T01:18:51;97176.28;;;6.12;65.37
12178;BME280;6152;48.728;9.256;2023-12-28T01:21:17;97184.66;;;6.17;64.88
12178;BME280;6152;48.728;9.256;2023-12-28T01:23:44;97188.28;;;6.13;65.80
12178;BME280;6152;48.728;9.256;2023-12-28T01:26:13;97183.34;;;6.07;65.79
12178;BME280;6152;48.728;9.256;2023-12-28T01:28:40;97191.31;;;6.02;65.88
12178;BME280;6152;48.728;9.256;2023-12-28T01:31:06;97192.03;;;6.06;65.10
12178;BME280;6152;48.728;9.256;2023-12-28T01:33:32;97189.59;;;6.03;66.20
12178;BME280;6152;48.728;9.256;2023-12-28T01:35:59;97195.81;;;5.97;66.41
12178;BME280;6152;48.728;9.256;2023-12-28T01:38:25;97197.81;;;5.91;66.70
12178;BME280;6152;48.728;9.256;2023-12-28T01:40:51;97199.75;;;5.86;67.17
12178;BME280;6152;48.728;9.256;2023-12-28T01:43:17;97208.50;;;5.82;67.74
12178;BME280;6152;48.728;9.256;2023-12-28T01:45:43;97201.78;;;5.78;67.70
12178;BME280;6152;48.728;9.256;2023-12-28T01:48:10;97206.03;;;5.79;67.67
12178;BME280;6152;48.728;9.256;2023-12-28T01:50:37;97214.34;;;5.87;68.03
12178;BME280;6152;48.728;9.256;2023-12-28T01:53:04;97215.31;;;5.83;69.11
12178;BME280;6152;48.728;9.256;2023-12-28T01:55:30;97213.84;;;5.77;68.86
12178;BME280;6152;48.728;9.256;2023-12-28T01:57:58;97208.63;;;5.79;68.76
12178;BME280;6152;48.728;9.256;2023-12-28T02:00:24;97215.44;;;5.80;68.98
12178;BME280;6152;48.728;9.256;2023-12-28T02:02:51;97219.72;;;5.81;69.64
12178;BME280;6152;48.728;9.256;2023-12-28T02:05:17;97219.84;;;5.78;69.39
12178;BME280;6152;48.728;9.256;2023-12-28T02:07:44;97218.22;;;5.75;69.57
12178;BME280;6152;48.728;9.256;2023-12-28T02:10:10;97215.78;;;5.72;70.12
12178;BME280;6152;48.728;9.256;2023-12-28T02:12:36;97225.25;;;5.72;69.84
12178;BME280;6152;48.728;9.256;2023-12-28T02:15:03;97236.47;;;5.71;70.72
12178;BME280;6152;48.728;9.256;2023-12-28T02:17:38;97238.50;;;5.63;71.36
12178;BME280;6152;48.728;9.256;2023-12-28T02:20:08;97247.38;;;5.55;72.69
12178;BME280;6152;48.728;9.256;2023-12-28T02:22:36;97245.13;;;5.48;73.81
12178;BME280;6152;48.728;9.256;2023-12-28T02:25:05;97241.03;;;5.42;74.71
12178;BME280;6152;48.728;9.256;2023-12-28T02:27:36;97245.53;;;5.37;75.74
12178;BME280;6152;48.728;9.256;2023-12-28T02:30:05;97238.06;;;5.30;77.06
12178;BME280;6152;48.728;9.256;2023-12-28T02:35:31;97239.38;;;5.18;79.34
12178;BME280;6152;48.728;9.256;2023-12-28T02:38:04;97236.06;;;5.15;79.41
12178;BME280;6152;48.728;9.256;2023-12-28T02:40:38;97230.97;;;5.13;80.41
12178;BME280;6152;48.728;9.256;2023-12-28T02:43:06;97235.34;;;5.11;80.25
12178;BME280;6152;48.728;9.256;2023-12-28T02:45:33;97229.97;;;5.17;79.77
12178;BME280;6152;48.728;9.256;2023-12-28T02:47:59;97230.84;;;5.16;80.04
12178;BME280;6152;48.728;9.256;2023-12-28T02:50:25;97221.91;;;5.25;79.44
12178;BME280;6152;48.728;9.256;2023-12-28T02:52:51;97223.59;;;5.26;80.14
12178;BME280;6152;48.728;9.256;2023-12-28T02:55:18;97224.69;;;5.20;80.50
12178;BME280;6152;48.728;9.256;2023-12-28T02:57:44;97225.69;;;5.16;82.01
12178;BME280;6152;48.728;9.256;2023-12-28T03:00:11;97233.66;;;5.10;82.67
12178;BME280;6152;48.728;9.256;2023-12-28T03:02:38;97237.25;;;5.06;83.78
12178;BME280;6152;48.728;9.256;2023-12-28T03:05:05;97236.53;;;5.02;84.19
12178;BME280;6152;48.728;9.256;2023-12-28T03:07:35;97237.47;;;5.00;85.61
12178;BME280;6152;48.728;9.256;2023-12-28T03:10:02;97230.63;;;4.99;86.44
12178;BME280;6152;48.728;9.256;2023-12-28T03:12:29;97226.31;;;4.99;87.66
12178;BME280;6152;48.728;9.256;2023-12-28T03:14:56;97222.22;;;4.94;90.17
12178;BME280;6152;48.728;9.256;2023-12-28T03:17:22;97224.03;;;4.92;88.68
12178;BME280;6152;48.728;9.256;2023-12-28T03:19:48;97223.28;;;4.88;91.49
12178;BME280;6152;48.728;9.256;2023-12-28T03:22:14;97223.34;;;4.87;90.78
12178;BME280;6152;48.728;9.256;2023-12-28T03:24:41;97234.44;;;4.89;89.51
12178;BME280;6152;48.728;9.256;2023-12-28T03:27:07;97227.56;;;4.89;91.24
12178;BME280;6152;48.728;9.256;2023-12-28T03:29:34;97237.03;;;4.89;90.93
12178;BME280;6152;48.728;9.256;2023-12-28T03:32:00;97242.13;;;4.90;91.43
12178;BME280;6152;48.728;9.256;2023-12-28T03:34:27;97245.66;;;4.88;91.43
12178;BME280;6152;48.728;9.256;2023-12-28T03:36:55;97237.91;;;4.88;91.48
12178;BME280;6152;48.728;9.256;2023-12-28T03:39:21;97247.34;;;4.89;93.01
12178;BME280;6152;48.728;9.256;2023-12-28T03:41:50;97235.19;;;4.92;90.77
12178;BME280;6152;48.728;9.256;2023-12-28T03:44:19;97228.91;;;4.99;88.65
12178;BME280;6152;48.728;9.256;2023-12-28T03:46:49;97227.94;;;5.02;87.68
12178;BME280;6152;48.728;9.256;2023-12-28T03:49:17;97226.81;;;5.09;87.69
12178;BME280;6152;48.728;9.256;2023-12-28T03:51:44;97235.91;;;5.19;85.93
12178;BME280;6152;48.728;9.256;2023-12-28T03:54:10;97229.50;;;5.29;84.23
12178;BME280;6152;48.728;9.256;2023-12-28T03:56:36;97221.63;;;5.32;84.29
12178;BME280;6152;48.728;9.256;2023-12-28T03:59:06;97216.19;;;5.40;83.18
12178;BME280;6152;48.728;9.256;2023-12-28T04:01:33;97208.88;;;5.51;82.76
12178;BME280;6152;48.728;9.256;2023-12-28T04:03:59;97204.94;;;5.63;82.04
12178;BME280;6152;48.728;9.256;2023-12-28T04:06:25;97197.38;;;5.80;80.00
12178;BME280;6152;48.728;9.256;2023-12-28T04:08:51;97196.84;;;5.93;78.66
12178;BME280;6152;48.728;9.256;2023-12-28T04:11:17;97191.44;;;5.99;78.47
12178;BME280;6152;48.728;9.256;2023-12-28T04:13:44;97187.94;;;6.00;78.46
12178;BME280;6152;48.728;9.256;2023-12-28T04:16:14;97184.03;;;6.12;77.62
12178;BME280;6152;48.728;9.256;2023-12-28T04:18:43;97189.06;;;6.15;78.23
12178;BME280;6152;48.728;9.256;2023-12-28T04:21:10;97189.81;;;6.17;77.47
12178;BME280;6152;48.728;9.256;2023-12-28T04:23:37;97188.16;;;6.16;78.46
12178;BME280;6152;48.728;9.256;2023-12-28T04:26:04;97204.69;;;6.12;78.59
12178;BME280;6152;48.728;9.256;2023-12-28T04:28:30;97198.03;;;6.06;79.28
12178;BME280;6152;48.728;9.256;2023-12-28T04:30:56;97206.09;;;5.99;81.18
12178;BME280;6152;48.728;9.256;2023-12-28T04:33:22;97193.31;;;5.96;80.16
12178;BME280;6152;48.728;9.256;2023-12-28T04:35:48;97194.09;;;5.98;80.13
12178;BME280;6152;48.728;9.256;2023-12-28T04:38:15;97189.59;;;6.03;79.12
12178;BME280;6152;48.728;9.256;2023-12-28T04:40:41;97191.25;;;6.04;78.04
12178;BME280;6152;48.728;9.256;2023-12-28T04:43:07;97193.59;;;6.10;77.94
12178;BME280;6152;48.728;9.256;2023-12-28T04:45:33;97193.81;;;6.24;75.79
12178;BME280;6152;48.728;9.256;2023-12-28T04:47:59;97187.41;;;6.34;75.43
12178;BME280;6152;48.728;9.256;2023-12-28T04:50:26;97186.28;;;6.40;76.14
12178;BME280;6152;48.728;9.256;2023-12-28T04:52:52;97188.31;;;6.52;75.62
12178;BME280;6152;48.728;9.256;2023-12-28T04:55:18;97184.50;;;6.60;76.24
12178;BME280;6152;48.728;9.256;2023-12-28T04:57:44;97177.84;;;6.75;74.50
12178;BME280;6152;48.728;9.256;2023-12-28T05:00:10;97181.59;;;6.87;74.61
12178;BME280;6152;48.728;9.256;2023-12-28T05:02:36;97179.00;;;6.87;75.35
12178;BME280;6152;48.728;9.256;2023-12-28T05:05:03;97176.56;;;6.84;76.70
12178;BME280;6152;48.728;9.256;2023-12-28T05:07:29;97180.22;;;6.98;73.91
12178;BME280;6152;48.728;9.256;2023-12-28T05:09:55;97187.50;;;7.09;74.50
12178;BME280;6152;48.728;9.256;2023-12-28T05:12:21;97179.78;;;7.07;74.33
12178;BME280;6152;48.728;9.256;2023-12-28T05:14:47;97183.09;;;7.11;73.83
12178;BME280;6152;48.728;9.256;2023-12-28T05:17:13;97184.47;;;7.18;72.89
12178;BME280;6152;48.728;9.256;2023-12-28T05:19:39;97191.84;;;7.27;72.41
12178;BME280;6152;48.728;9.256;2023-12-28T05:22:05;97191.69;;;7.30;72.39
12178;BME280;6152;48.728;9.256;2023-12-28T05:24:34;97196.03;;;7.30;72.36
12178;BME280;6152;48.728;9.256;2023-12-28T05:27:00;97201.75;;;7.36;71.74
12178;BME280;6152;48.728;9.256;2023-12-28T05:29:26;97198.41;;;7.34;72.30
12178;BME280;6152;48.728;9.256;2023-12-28T05:31:52;97211.34;;;7.34;72.22
12178;BME280;6152;48.728;9.256;2023-12-28T05:34:18;97218.03;;;7.38;72.61
12178;BME280;6152;48.728;9.256;2023-12-28T05:36:44;97215.59;;;7.35;72.97
12178;BME280;6152;48.728;9.256;2023-12-28T05:39:11;97220.50;;;7.41;71.84
12178;BME280;6152;48.728;9.256;2023-12-28T05:41:39;97219.78;;;7.56;70.75
12178;BME280;6152;48.728;9.256;2023-12-28T05:44:06;97226.06;;;7.70;71.07
12178;BME280;6152;48.728;9.256;2023-12-28T05:46:32;97223.66;;;7.84;70.43
12178;BME280;6152;48.728;9.256;2023-12-28T05:48:58;97228.88;;;8.01;70.83
12178;BME280;6152;48.728;9.256;2023-12-28T05:51:25;97225.69;;;8.13;70.22
12178;BME280;6152;48.728;9.256;2023-12-28T05:53:51;97233.91;;;8.21;69.77
12178;BME280;6152;48.728;9.256;2023-12-28T05:56:17;97223.25;;;8.27;69.17
12178;BME280;6152;48.728;9.256;2023-12-28T05:58:43;97238.81;;;8.27;69.44
12178;BME280;6152;48.728;9.256;2023-12-28T06:01:09;97240.72;;;8.24;70.28
12178;BME280;6152;48.728;9.256;2023-12-28T06:03:35;97231.94;;;8.26;69.70
12178;BME280;6152;48.728;9.256;2023-12-28T06:06:01;97231.66;;;8.32;69.98
12178;BME280;6152;48.728;9.256;2023-12-28T06:08:27;97232.44;;;8.34;70.52
12178;BME280;6152;48.728;9.256;2023-12-28T06:10:53;97225.41;;;8.36;70.00
12178;BME280;6152;48.728;9.256;2023-12-28T06:13:19;97245.25;;;8.37;70.67
12178;BME280;6152;48.728;9.256;2023-12-28T06:15:46;97252.03;;;8.40;70.63
12178;BME280;6152;48.728;9.256;2023-12-28T06:18:12;97251.66;;;8.47;70.28
12178;BME280;6152;48.728;9.256;2023-12-28T06:20:38;97246.47;;;8.47;70.84
12178;BME280;6152;48.728;9.256;2023-12-28T06:23:04;97254.84;;;8.52;71.07
12178;BME280;6152;48.728;9.256;2023-12-28T06:25:32;97247.91;;;8.53;70.84
12178;BME280;6152;48.728;9.256;2023-12-28T06:27:58;97251.34;;;8.53;71.44
12178;BME280;6152;48.728;9.256;2023-12-28T06:30:24;97251.50;;;8.50;72.76
12178;BME280;6152;48.728;9.256;2023-12-28T06:32:50;97249.81;;;8.49;73.04
12178;BME280;6152;48.728;9.256;2023-12-28T06:35:16;97264.53;;;8.49;73.39
12178;BME280;6152;48.728;9.256;2023-12-28T06:37:43;97266.28;;;8.48;73.21
12178;BME280;6152;48.728;9.256;2023-12-28T06:40:09;97263.69;;;8.48;73.18
12178;BME280;6152;48.728;9.256;2023-12-28T06:42:36;97263.78;;;8.47;74.12
12178;BME280;6152;48.728;9.256;2023-12-28T06:45:02;97260.34;;;8.46;74.81
12178;BME280;6152;48.728;9.256;2023-12-28T06:47:28;97263.69;;;8.48;75.07
12178;BME280;6152;48.728;9.256;2023-12-28T06:49:54;97261.09;;;8.48;75.01
12178;BME280;6152;48.728;9.256;2023-12-28T06:52:20;97267.97;;;8.49;76.04
12178;BME280;6152;48.728;9.256;2023-12-28T06:54:46;97267.22;;;8.47;76.39
12178;BME280;6152;48.728;9.256;2023-12-28T06:57:12;97272.41;;;8.47;76.56
12178;BME280;6152;48.728;9.256;2023-12-28T06:59:38;97268.88;;;8.48;76.20
12178;BME280;6152;48.728;9.256;2023-12-28T07:02:05;97274.06;;;8.48;77.05
12178;BME280;6152;48.728;9.256;2023-12-28T07:04:31;97266.16;;;8.51;77.09
12178;BME280;6152;48.728;9.256;2023-12-28T07:06:58;97267.06;;;8.50;77.79
12178;BME280;6152;48.728;9.256;2023-12-28T07:09:25;97272.25;;;8.50;79.11
12178;BME280;6152;48.728;9.256;2023-12-28T07:11:51;97278.28;;;8.51;78.86
12178;BME280;6152;48.728;9.256;2023-12-28T07:14:17;97266.91;;;8.53;80.36
12178;BME280;6152;48.728;9.256;2023-12-28T07:16:43;97272.84;;;8.55;80.22
12178;BME280;6152;48.728;9.256;2023-12-28T07:19:09;97283.22;;;8.55;81.23
12178;BME280;6152;48.728;9.256;2023-12-28T07:21:35;97280.63;;;8.55;82.74
12178;BME280;6152;48.728;9.256;2023-12-28T07:24:01;97280.63;;;8.55;83.37
12178;BME280;6152;48.728;9.256;2023-12-28T07:26:27;97275.44;;;8.55;83.15
12178;BME280;6152;48.728;9.256;2023-12-28T07:28:53;97284.00;;;8.57;83.35
12178;BME280;6152;48.728;9.256;2023-12-28T07:31:27;97286.50;;;8.59;83.70
12178;BME280;6152;48.728;9.256;2023-12-28T07:33:54;97284.69;;;8.61;84.71
12178;BME280;6152;48.728;9.256;2023-12-28T07:36:21;97292.38;;;8.62;85.71
12178;BME280;6152;48.728;9.256;2023-12-28T07:38:47;97295.75;;;8.65;85.99
12178;BME280;6152;48.728;9.256;2023-12-28T07:41:13;97295.75;;;8.65;86.08
12178;BME280;6152;48.728;9.256;2023-12-28T07:43:39;97297.41;;;8.66;86.22
12178;BME280;6152;48.728;9.256;2023-12-28T07:46:05;97300.00;;;8.66;86.69
12178;BME280;6152;48.728;9.256;2023-12-28T07:48:31;97304.13;;;8.70;91.20
12178;BME280;6152;48.728;9.256;2023-12-28T07:50:58;97303.97;;;8.73;94.82
12178;BME280;6152;48.728;9.256;2023-12-28T07:53:24;97308.94;;;8.77;95.41
12178;BME280;6152;48.728;9.256;2023-12-28T07:55:50;97300.00;;;8.83;97.03
12178;BME280;6152;48.728;9.256;2023-12-28T07:58:17;97298.03;;;8.88;97.98
12178;BME280;6152;48.728;9.256;2023-12-28T08:00:43;97302.16;;;8.92;100.00
12178;BME280;6152;48.728;9.256;2023-12-28T08:03:09;97298.78;;;8.90;98.54
12178;BME280;6152;48.728;9.256;2023-12-28T08:05:35;97310.84;;;8.91;96.54
12178;BME280;6152;48.728;9.256;2023-12-28T08:08:01;97317.63;;;8.93;99.84
12178;BME280;6152;48.728;9.256;2023-12-28T08:10:27;97321.84;;;8.96;100.00
12178;BME280;6152;48.728;9.256;2023-12-28T08:12:53;97310.00;;;8.90;100.00
12178;BME280;6152;48.728;9.256;2023-12-28T08:15:19;97311.00;;;8.88;99.54
12178;BME280;6152;48.728;9.256;2023-12-28T08:17:46;97316.13;;;8.89;100.00
12178;BME280;6152;48.728;9.256;2023-12-28T08:20:12;97311.75;;;8.90;100.00
12178;BME280;6152;48.728;9.256;2023-12-28T08:22:38;97311.75;;;8.90;100.00
12178;BME280;6152;48.728;9.256;2023-12-28T08:25:04;97308.94;;;8.94;100.00
12178;BME280;6152;48.728;9.256;2023-12-28T08:27:30;97314.34;;;8.90;100.00
12178;BME280;6152;48.728;9.256;2023-12-28T08:29:56;97318.78;;;8.88;100.00
12178;BME280;6152;48.728;9.256;2023-12-28T08:32:22;97311.63;;;8.93;100.00
12178;BME280;6152;48.728;9.256;2023-12-28T08:34:49;97316.81;;;8.93;100.00
12178;BME280;6152;48.728;9.256;2023-12-28T08:37:15;97309.78;;;8.95;100.00
12178;BME280;6152;48.728;9.256;2023-12-28T08:39:41;97315.13;;;8.92;100.00
12178;BME280;6152;48.728;9.256;2023-12-28T08:42:07;97321.16;;;8.92;100.00
12178;BME280;6152;48.728;9.256;2023-12-28T08:44:33;97331.53;;;8.92;100.00
12178;BME280;6152;48.728;9.256;2023-12-28T08:47:00;97325.50;;;8.92;100.00
12178;BME280;6152;48.728;9.256;2023-12-28T08:49:28;97328.09;;;8.92;100.00
12178;BME280;6152;48.728;9.256;2023-12-28T08:51:55;97328.09;;;8.92;100.00
12178;BME280;6152;48.728;9.256;2023-12-28T08:54:21;97336.78;;;8.91;100.00
12178;BME280;6152;48.728;9.256;2023-12-28T08:56:47;97322.13;;;8.90;100.00
12178;BME280;6152;48.728;9.256;2023-12-28T08:59:14;97324.59;;;8.93;100.00
12178;BME280;6152;48.728;9.256;2023-12-28T09:01:40;97322.00;;;8.93;100.00
12178;BME280;6152;48.728;9.256;2023-12-28T09:04:06;97320.16;;;8.95;100.00
12178;BME280;6152;48.728;9.256;2023-12-28T09:06:32;97322.53;;;8.99;100.00
12178;BME280;6152;48.728;9.256;2023-12-28T09:08:58;97317.06;;;9.04;100.00
12178;BME280;6152;48.728;9.256;2023-12-28T09:11:25;97304.78;;;9.07;100.00
12178;BME280;6152;48.728;9.256;2023-12-28T09:13:51;97312.34;;;9.12;100.00
12178;BME280;6152;48.728;9.256;2023-12-28T09:16:17;97314.03;;;9.13;100.00
12178;BME280;6152;48.728;9.256;2023-12-28T09:18:43;97310.31;;;9.17;100.00
12178;BME280;6152;48.728;9.256;2023-12-28T09:21:10;97313.59;;;9.21;100.00
12178;BME280;6152;48.728;9.256;2023-12-28T09:23:36;97316.06;;;9.24;99.42
12178;BME280;6152;48.728;9.256;2023-12-28T09:26:04;97320.16;;;9.28;98.86
12178;BME280;6152;48.728;9.256;2023-12-28T09:28:30;97321.00;;;9.28;99.13
12178;BME280;6152;48.728;9.256;2023-12-28T09:30:57;97329.31;;;9.35;99.47
12178;BME280;6152;48.728;9.256;2023-12-28T09:33:23;97331.00;;;9.36;100.00
12178;BME280;6152;48.728;9.256;2023-12-28T09:35:50;97336.88;;;9.39;100.00
12178;BME280;6152;48.728;9.256;2023-12-28T09:38:16;97338.22;;;9.46;100.00
12178;BME280;6152;48.728;9.256;2023-12-28T09:40:42;97336.38;;;9.48;100.00
12178;BME280;6152;48.728;9.256;2023-12-28T09:45:48;97338.25;;;9.62;100.00
12178;BME280;6152;48.728;9.256;2023-12-28T09:48:18;97334.66;;;9.64;100.00
12178;BME280;6152;48.728;9.256;2023-12-28T09:50:48;97336.25;;;9.67;100.00
12178;BME280;6152;48.728;9.256;2023-12-28T09:53:15;97338.28;;;9.78;100.00
12178;BME280;6152;48.728;9.256;2023-12-28T09:55:41;97346.66;;;9.83;100.00
12178;BME280;6152;48.728;9.256;2023-12-28T09:58:08;97332.56;;;9.87;100.00
12178;BME280;6152;48.728;9.256;2023-12-28T10:00:35;97331.94;;;9.99;100.00
12178;BME280;6152;48.728;9.256;2023-12-28T10:03:03;97326.81;;;10.13;100.00
12178;BME280;6152;48.728;9.256;2023-12-28T10:05:29;97330.59;;;10.23;98.38
12178;BME280;6152;48.728;9.256;2023-12-28T10:07:56;97319.69;;;10.32;97.72
12178;BME280;6152;48.728;9.256;2023-12-28T10:10:23;97336.09;;;10.48;96.58
12178;BME280;6152;48.728;9.256;2023-12-28T10:12:49;97334.81;;;10.55;96.17
12178;BME280;6152;48.728;9.256;2023-12-28T10:15:15;97336.91;;;10.64;94.70
12178;BME280;6152;48.728;9.256;2023-12-28T10:17:41;97344.78;;;10.63;93.68
12178;BME280;6152;48.728;9.256;2023-12-28T10:20:08;97339.59;;;10.63;93.17
12178;BME280;6152;48.728;9.256;2023-12-28T10:22:36;97342.31;;;10.61;92.58
12178;BME280;6152;48.728;9.256;2023-12-28T10:25:06;97339.41;;;10.66;93.56
12178;BME280;6152;48.728;9.256;2023-12-28T10:27:36;97333.22;;;10.69;93.29
12178;BME280;6152;48.728;9.256;2023-12-28T10:30:04;97331.16;;;10.74;92.49
12178;BME280;6152;48.728;9.256;2023-12-28T10:32:30;97324.47;;;10.70;92.37
12178;BME280;6152;48.728;9.256;2023-12-28T10:34:56;97319.19;;;10.71;92.87
12178;BME280;6152;48.728;9.256;2023-12-28T10:37:23;97322.81;;;10.69;92.60
12178;BME280;6152;48.728;9.256;2023-12-28T10:39:54;97317.41;;;10.72;93.48
12178;BME280;6152;48.728;9.256;2023-12-28T10:42:31;97306.53;;;10.65;93.39
12178;BME280;6152;48.728;9.256;2023-12-28T10:45:10;97315.25;;;10.64;95.17
12178;BME280;6152;48.728;9.256;2023-12-28T10:47:38;97318.34;;;10.71;96.52
12178;BME280;6152;48.728;9.256;2023-12-28T10:50:09;97316.84;;;10.67;99.06
12178;BME280;6152;48.728;9.256;2023-12-28T10:52:37;97313.56;;;10.63;100.00
12178;BME280;6152;48.728;9.256;2023-12-28T11:00:22;97322.09;;;10.81;100.00
12178;BME280;6152;48.728;9.256;2023-12-28T11:02:52;97313.00;;;10.88;100.00
12178;BME280;6152;48.728;9.256;2023-12-28T11:05:21;97310.38;;;10.88;100.00
12178;BME280;6152;48.728;9.256;2023-12-28T11:07:49;97306.09;;;10.87;100.00
12178;BME280;6152;48.728;9.256;2023-12-28T11:10:16;97318.00;;;10.91;100.00
12178;BME280;6152;48.728;9.256;2023-12-28T11:12:44;97303.88;;;10.95;100.00
12178;BME280;6152;48.728;9.256;2023-12-28T11:15:10;97304.91;;;10.92;100.00
12178;BME280;6152;48.728;9.256;2023-12-28T11:17:38;97304.81;;;10.94;100.00
12178;BME280;6152;48.728;9.256;2023-12-28T11:20:06;97304.53;;;10.98;100.00
12178;BME280;6152;48.728;9.256;2023-12-28T11:22:33;97297.94;;;10.93;100.00
12178;BME280;6152;48.728;9.256;2023-12-28T11:25:00;97293.66;;;10.92;100.00
12178;BME280;6152;48.728;9.256;2023-12-28T11:27:32;97289.28;;;10.92;100.00
12178;BME280;6152;48.728;9.256;2023-12-28T11:29:59;97284.38;;;11.02;100.00
12178;BME280;6152;48.728;9.256;2023-12-28T11:32:25;97278.78;;;11.08;100.00
12178;BME280;6152;48.728;9.256;2023-12-28T11:34:57;97278.59;;;11.11;100.00
12178;BME280;6152;48.728;9.256;2023-12-28T11:37:26;97281.97;;;11.13;100.00
12178;BME280;6152;48.728;9.256;2023-12-28T11:39:52;97285.69;;;11.09;100.00
12178;BME280;6152;48.728;9.256;2023-12-28T11:42:22;97279.16;;;11.02;100.00
12178;BME280;6152;48.728;9.256;2023-12-28T11:44:54;97275.78;;;11.00;100.00
12178;BME280;6152;48.728;9.256;2023-12-28T11:47:24;97273.38;;;10.97;100.00
12178;BME280;6152;48.728;9.256;2023-12-28T11:49:51;97272.00;;;10.91;100.00
12178;BME280;6152;48.728;9.256;2023-12-28T11:52:29;97269.47;;;10.90;100.00
12178;BME280;6152;48.728;9.256;2023-12-28T11:54:56;97261.84;;;10.87;100.00
12178;BME280;6152;48.728;9.256;2023-12-28T11:57:22;97269.66;;;10.87;100.00
12178;BME280;6152;48.728;9.256;2023-12-28T11:59:56;97275.03;;;10.84;100.00
12178;BME280;6152;48.728;9.256;2023-12-28T12:02:22;97275.03;;;10.84;100.00
12178;BME280;6152;48.728;9.256;2023-12-28T12:04:50;97268.34;;;10.80;100.00
12178;BME280;6152;48.728;9.256;2023-12-28T12:07:16;97265.00;;;10.78;100.00
12178;BME280;6152;48.728;9.256;2023-12-28T12:09:42;97263.31;;;10.77;100.00
12178;BME280;6152;48.728;9.256;2023-12-28T12:12:09;97266.84;;;10.76;100.00
12178;BME280;6152;48.728;9.256;2023-12-28T12:14:35;97266.03;;;10.75;100.00
12178;BME280;6152;48.728;9.256;2023-12-28T12:17:02;97262.66;;;10.73;100.00
12178;BME280;6152;48.728;9.256;2023-12-28T12:19:28;97266.09;;;10.74;100.00
12178;BME280;6152;48.728;9.256;2023-12-28T12:22:00;97252.41;;;10.70;100.00
12178;BME280;6152;48.728;9.256;2023-12-28T12:24:26;97253.25;;;10.71;100.00
12178;BME280;6152;48.728;9.256;2023-12-28T12:26:53;97256.91;;;10.68;100.00
12178;BME280;6152;48.728;9.256;2023-12-28T12:29:19;97251.03;;;10.64;100.00
12178;BME280;6152;48.728;9.256;2023-12-28T12:31:47;97243.97;;;10.67;100.00
12178;BME280;6152;48.728;9.256;2023-12-28T12:34:17;97245.06;;;10.62;100.00
12178;BME280;6152;48.728;9.256;2023-12-28T12:36:43;97245.25;;;10.59;100.00
12178;BME280;6152;48.728;9.256;2023-12-28T12:39:13;97240.88;;;10.60;100.00
12178;BME280;6152;48.728;9.256;2023-12-28T12:41:40;97238.19;;;10.61;100.00
12178;BME280;6152;48.728;9.256;2023-12-28T12:44:07;97238.19;;;10.61;100.00
12178;BME280;6152;48.728;9.256;2023-12-28T12:46:36;97241.91;;;10.57;100.00
12178;BME280;6152;48.728;9.256;2023-12-28T12:49:02;97235.00;;;10.56;100.00
12178;BME280;6152;48.728;9.256;2023-12-28T12:51:29;97229.81;;;10.56;100.00
12178;BME280;6152;48.728;9.256;2023-12-28T12:53:59;97229.81;;;10.56;100.00
12178;BME280;6152;48.728;9.256;2023-12-28T12:56:29;97233.31;;;10.55;100.00
12178;BME280;6152;48.728;9.256;2023-12-28T12:58:56;97238.53;;;10.55;100.00
12178;BME280;6152;48.728;9.256;2023-12-28T13:01:23;97242.09;;;10.54;100.00
12178;BME280;6152;48.728;9.256;2023-12-28T13:03:52;97242.28;;;10.51;100.00
12178;BME280;6152;48.728;9.256;2023-12-28T13:06:19;97237.13;;;10.50;100.00
12178;BME280;6152;48.728;9.256;2023-12-28T13:08:48;97242.59;;;10.45;100.00
12178;BME280;6152;48.728;9.256;2023-12-28T13:11:15;97234.78;;;10.45;100.00
12178;BME280;6152;48.728;9.256;2023-12-28T13:13:41;97235.75;;;10.44;100.00
12178;BME280;6152;48.728;9.256;2023-12-28T13:16:07;97224.81;;;10.38;100.00
12178;BME280;6152;48.728;9.256;2023-12-28T13:18:33;97236.06;;;10.38;100.00
12178;BME280;6152;48.728;9.256;2023-12-28T13:21:01;97237.94;;;10.36;100.00
12178;BME280;6152;48.728;9.256;2023-12-28T13:23:28;97240.53;;;10.36;100.00